Latest Coastal Weather Observations for Port Augusta

IDS60701

Issued at 1:51 am CDT Wednesday 17 January 2018 (issued every 10 minutes, with the page automatically refreshed every 10 minutes)

About coastal observations | Map of coastal stations | Coastal observations for SA | Marine services | Other Formats
Station Details ID: 018201 Name: PORT AUGUSTA AERO Lat: -32.51 Lon: 137.72 Height: 13.97 m
Data from the previous 72 hours. | See also: Recent months at Port Augusta
Date/Time
CDT
Temp
°C
Wind Pressure Rain since
9am
mm
Weather Cloud Vis
km
Sea
Height
m
Swell
Dir  Spd
kts
Gust
kts
hPa Trend Height
m
Period
s
Dir
17/01:30am 25.0 ESE 8 10 1013.3 - 0.0 - - 10 - - - -
17/01:00am 25.4 ESE 9 11 1013.4 - 0.0 - - 10 - - - -
17/12:30am 26.3 SE 10 14 1013.5 - 0.0 - - 10 - - - -
17/12:00am 26.9 ESE 12 16 1013.6 - 0.0 - - 10 - - - -
 
Date/Time
CDT
Temp
°C
Wind Pressure Rain since
9am
mm
Weather Cloud Vis
km
Sea
Height
m
Swell
Dir  Spd
kts
Gust
kts
hPa Trend Height
m
Period
s
Dir
16/11:30pm 27.4 SE 12 17 1013.7 - 0.0 - - 10 - - - -
16/11:00pm 27.8 SE 14 19 1013.5 - 0.0 - - 10 - - - -
16/10:30pm 28.2 SE 15 20 1013.4 - 0.0 - - 10 - - - -
16/10:00pm 26.0 ESE 14 19 1013.4 - 0.0 - - 10 - - - -
16/09:30pm 25.9 SE 16 22 1013.3 - 0.0 - - 10 - - - -
16/09:00pm 26.4 SE 15 20 1013.1 - 0.0 - - 10 - - - -
16/08:30pm 26.9 SE 15 19 1013.0 - 0.0 - - 10 - - - -
16/08:00pm 28.7 SE 15 20 1012.8 - 0.0 - - 10 - - - -
16/07:30pm 30.1 SSE 17 22 1012.6 - 0.0 - - 10 - - - -
16/07:00pm 31.8 SE 18 24 1012.5 - 0.0 - - 10 - - - -
16/06:30pm 33.7 SE 19 25 1012.3 - 0.0 - - 10 - - - -
16/06:00pm 34.5 SSE 19 23 1012.4 - 0.0 - - 10 - - - -
16/05:30pm 34.4 SE 15 19 1012.5 - 0.0 - - 10 - - - -
16/05:00pm 35.6 SE 13 17 1012.6 - 0.0 - - 10 - - - -
16/04:30pm 36.2 SE 12 18 1012.9 - 0.0 - - 10 - - - -
16/04:00pm 36.1 SE 9 14 1013.3 - 0.0 - - 10 - - - -
16/03:30pm 36.0 ESE 10 15 1013.7 - 0.0 - - 10 - - - -
16/03:00pm 35.1 SE 8 14 1013.9 - 0.0 - - 10 - - - -
16/02:30pm 35.0 SE 10 16 1014.4 - 0.0 - - 10 - - - -
16/02:00pm 35.8 E 7 13 1014.8 - 0.0 - - 10 - - - -
16/01:30pm 33.3 SE 8 13 1015.5 - 0.0 - - 10 - - - -
16/01:00pm 33.5 SSE 7 11 1015.8 - 0.0 - - 10 - - - -
16/12:30pm 32.5 ESE 8 12 1016.3 - 0.0 - - 10 - - - -
16/12:00pm 32.1 SE 7 13 1016.6 - 0.0 - - 10 - - - -
16/11:30am 32.1 E 8 13 1016.9 - 0.0 - - 10 - - - -
16/11:00am 30.1 ESE 8 12 1017.2 - 0.0 - - 10 - - - -
16/10:30am 29.8 SE 8 11 1017.4 - 0.0 - - 10 - - - -
16/10:00am 27.5 SE 11 14 1017.5 - 0.0 - - 10 - - - -
16/09:30am 25.9 SE 9 13 1017.8 - 0.0 - - 10 - - - -
16/09:00am 25.2 SE 11 14 1017.7 - 0.0 - - 10 - - - -
16/08:30am 24.6 SE 10 13 1017.5 - 0.0 - - 10 - - - -
16/08:00am 23.8 SSE 13 16 1017.2 - 0.0 - - 10 - - - -
16/07:30am 23.2 SSE 9 12 1017.1 - 0.0 - - 10 - - - -
16/07:00am 21.2 S 4 8 1016.8 - 0.0 - - 10 - - - -
16/06:30am 20.0 SSE 4 5 1016.8 - 0.0 - - 10 - - - -
16/06:00am 20.0 SSE 6 7 1016.6 - 0.0 - - 10 - - - -
16/05:30am 20.2 S 7 9 1016.2 - 0.0 - - 10 - - - -
16/05:00am 21.1 SE 10 12 1016.0 - 0.0 - - 10 - - - -
16/04:30am 20.9 SE 8 11 1016.0 - 0.0 - - 10 - - - -
16/04:00am 21.3 SE 6 8 1016.0 - 0.0 - - 10 - - - -
16/03:30am 21.8 SE 6 7 1016.0 - 0.0 - - 10 - - - -
16/03:00am 21.7 S 8 11 1015.8 - 0.0 - - 10 - - - -
16/02:30am 22.1 S 5 11 1015.8 - 0.0 - - 10 - - - -
16/02:00am 22.8 SSE 10 15 1016.0 - 0.0 - - 10 - - - -
16/01:30am 23.1 SSE 14 19 1016.3 - 0.0 - - 10 - - - -
16/01:00am 23.2 SE 16 20 1016.4 - 0.0 - - 10 - - - -
16/12:30am 23.4 SSE 14 20 1016.7 - 0.0 - - 10 - - - -
16/12:00am 23.8 SSE 16 21 1016.9 - 0.0 - - 10 - - - -
 
Date/Time
CDT
Temp
°C
Wind Pressure Rain since
9am
mm
Weather Cloud Vis
km
Sea
Height
m
Swell
Dir  Spd
kts
Gust
kts
hPa Trend Height
m
Period
s
Dir
15/11:30pm 24.6 SSE 15 22 1017.0 - 0.0 - - 10 - - - -
15/11:00pm 24.6 SSE 17 24 1017.0 - 0.0 - - 10 - - - -
15/10:30pm 24.9 SSE 17 23 1017.0 - 0.0 - - 10 - - - -
15/10:00pm 25.1 SSE 17 23 1016.9 - 0.0 - - 10 - - - -
15/09:30pm 25.9 S 18 25 1016.7 - 0.0 - - 10 - - - -
15/09:00pm 26.6 S 13 21 1016.5 - 0.0 - Partly cloudy 10 - - - -
15/08:30pm 26.4 SE 9 17 1016.4 - 0.0 - - 10 - - - -
15/08:00pm 27.6 SE 11 16 1016.1 - 0.0 - - 10 - - - -
15/07:30pm 28.1 SE 14 19 1015.7 - 0.0 - - 10 - - - -
15/07:00pm 30.8 SSE 18 23 1015.3 - 0.0 - - 10 - - - -
15/06:30pm 31.1 SSE 19 24 1015.3 - 0.0 - - 10 - - - -
15/06:00pm 31.7 SSE 19 24 1015.1 - 0.0 - - 10 - - - -
15/05:30pm 32.6 SSE 18 25 1015.0 - 0.0 - - 10 - - - -
15/05:00pm 32.2 SE 17 23 1015.2 - 0.0 - - 10 - - - -
15/04:30pm 31.5 SE 17 22 1015.5 - 0.0 - - 10 - - - -
15/04:00pm 32.1 SE 16 21 1015.7 - 0.0 - - 10 - - - -
15/03:30pm 33.0 SSE 15 20 1016.0 - 0.0 - - 10 - - - -
15/03:00pm 31.9 SSE 14 18 1016.5 - 0.0 - - 10 - - - -
15/02:30pm 30.7 SE 11 16 1017.0 - 0.0 - - 10 - - - -
15/02:00pm 30.5 SE 9 13 1017.3 - 0.0 - - 10 - - - -
15/01:30pm 30.8 SSE 9 16 1017.9 - 0.0 - - 10 - - - -
15/01:00pm 31.3 SSE 11 16 1018.2 - 0.0 - - 10 - - - -
15/12:30pm 29.4 SE 10 15 1018.7 - 0.0 - - 10 - - - -
15/12:00pm 28.3 SE 11 16 1019.3 - 0.0 - - 10 - - - -
15/11:30am 27.4 SE 10 13 1019.6 - 0.0 - - 10 - - - -
15/11:00am 26.9 SE 13 17 1019.9 - 0.0 - - 10 - - - -
15/10:30am 26.1 SSE 14 18 1020.0 - 0.0 - - 10 - - - -
15/10:00am 25.3 SE 12 16 1020.1 - 0.0 - - 10 - - - -
15/09:30am 24.4 SE 11 15 1019.9 - 0.0 - - 10 - - - -
15/09:00am 23.4 SE 12 17 1019.9 - 0.0 - - 10 - - - -
15/08:30am 22.7 ESE 7 10 1020.1 - 0.0 - - 10 - - - -
15/08:00am 21.5 SSE 6 9 1019.8 - 0.0 - - 10 - - - -
15/07:30am 19.9 SSW 6 9 1019.5 - 0.0 - - 10 - - - -
15/07:00am 19.5 ESE 9 13 1019.2 - 0.0 - - 10 - - - -
15/06:30am 18.6 ESE 11 14 1019.0 - 0.0 - - 10 - - - -
15/06:00am 18.9 ESE 16 22 1018.5 - 0.0 - - 10 - - - -
15/05:30am 18.9 ESE 11 17 1018.1 - 0.0 - - 10 - - - -
15/05:00am 17.8 ESE 7 12 1018.0 - 0.0 - - 10 - - - -
15/04:30am 18.5 SE 9 11 1017.7 - 0.0 - - 10 - - - -
15/04:00am 18.8 SE 9 11 1017.8 - 0.0 - - 10 - - - -
15/03:30am 19.0 SE 11 14 1017.6 - 0.0 - - 10 - - - -
15/03:00am 19.1 SSE 13 18 1017.8 - 0.0 - - 10 - - - -
15/02:30am 19.2 SSE 13 17 1017.9 - 0.0 - - 10 - - - -
15/02:00am 19.0 SSE 12 15 1018.2 - 0.0 - - 10 - - - -
15/01:30am 19.3 SSE 13 17 1018.3 - 0.0 - - 10 - - - -
15/01:00am 19.4 SSE 19 24 1018.6 - 0.0 - - 10 - - - -
15/12:30am 19.5 SSE 16 22 1018.8 - 0.0 - - 10 - - - -
15/12:00am 19.7 S 17 23 1018.9 - 0.0 - - 10 - - - -
 
Date/Time
CDT
Temp
°C
Wind Pressure Rain since
9am
mm
Weather Cloud Vis
km
Sea
Height
m
Swell
Dir  Spd
kts
Gust
kts
hPa Trend Height
m
Period
s
Dir
14/11:30pm 20.1 S 18 23 1018.7 - 0.0 - - 10 - - - -
14/11:00pm 20.6 SSE 19 24 1018.6 - 0.0 - - 10 - - - -
14/10:30pm 21.3 SSE 17 22 1018.6 - 0.0 - - 10 - - - -
14/10:00pm 21.9 SSE 18 23 1018.2 - 0.0 - - 10 - - - -
14/09:30pm 22.6 SSE 21 27 1017.8 - 0.0 - - 10 - - - -
14/09:07pm 22.6 S 16 27 1017.6 - 0.0 - - 10 - - - -
14/09:00pm 22.4 S 17 24 1017.5 - 0.0 - - 10 - - - -
14/08:30pm 23.0 S 19 27 1017.3 - 0.0 - - 10 - - - -
14/08:00pm 24.7 S 17 23 1016.8 - 0.0 - - 10 - - - -
14/07:30pm 25.8 SSE 16 21 1016.5 - 0.0 - - 10 - - - -
14/07:00pm 26.8 S 18 23 1016.3 - 0.0 - - 10 - - - -
14/06:30pm 26.7 SSE 18 24 1015.9 - 0.0 - - 10 - - - -
14/06:00pm 27.8 SSE 17 23 1015.8 - 0.0 - - 10 - - - -
14/05:30pm 28.2 SSE 17 23 1015.7 - 0.0 - - 10 - - - -
14/05:00pm 28.6 S 17 24 1015.9 - 0.0 - - 10 - - - -
14/04:30pm 27.9 S 16 23 1016.2 - 0.0 - - 10 - - - -
14/04:00pm 27.9 S 15 23 1016.3 - 0.0 - - 10 - - - -
14/03:46pm 27.3 SSE 15 25 1016.5 - 0.0 - - 10 - - - -
14/03:30pm 27.7 SSE 17 23 1016.6 - 0.0 - - 10 - - - -
14/03:00pm 26.7 S 16 23 1017.1 - 0.0 - - 10 - - - -
14/02:30pm 27.0 SSE 15 22 1017.2 - 0.0 - - 10 - - - -
14/02:00pm 26.4 SSE 16 23 1017.5 - 0.0 - - 10 - - - -
14/01:30pm 25.0 SSE 16 21 1018.0 - 0.0 - - 10 - - - -
14/01:03pm 24.7 SSE 15 25 1018.4 - 0.0 - - 10 - - - -
14/01:00pm 24.4 SSE 16 23 1018.5 - 0.0 - - 10 - - - -
14/12:30pm 24.0 SSE 17 22 1018.7 - 0.0 - - 10 - - - -
14/12:00pm 23.0 S 17 23 1019.0 - 0.0 - - 10 - - - -
14/11:30am 22.1 SSE 16 24 1019.1 - 0.0 - - 10 - - - -
14/11:01am 22.4 SSE 15 25 1019.4 - 0.0 - - 10 - - - -
14/11:00am 22.0 SSE 16 25 1019.3 - 0.0 - - 10 - - - -
14/10:30am 21.6 SSE 16 22 1019.4 - 0.0 - - 10 - - - -
14/10:00am 20.9 SSE 17 23 1019.5 - 0.0 - - 10 - - - -
14/09:30am 19.5 SSE 18 23 1019.7 - 0.0 - - 10 - - - -
14/09:00am 18.8 SSE 18 25 1019.5 - 0.0 - - 10 - - - -
14/08:30am 18.3 SSE 17 21 1019.3 - 0.0 - - 10 - - - -
14/08:00am 17.4 SE 18 22 1018.5 - 0.0 - - 10 - - - -
14/07:30am 17.1 SE 13 18 1018.5 - 0.0 - - 10 - - - -
14/07:00am 16.7 SE 11 15 1018.1 - 0.0 - - 10 - - - -
14/06:30am 16.4 SE 11 15 1017.6 - 0.0 - Partly cloudy 10 - - - -
14/06:00am 16.9 SE 14 20 1017.1 - 0.0 - Mostly cloudy 10 - - - -
14/05:30am 17.7 SSE 17 24 1017.0 - 0.0 - Partly cloudy 10 - - - -
14/05:00am 17.6 SSE 16 21 1016.9 - 0.0 - Partly cloudy 10 - - - -
14/04:30am 17.7 SSE 16 21 1016.8 - 0.0 - Partly cloudy 10 - - - -
14/04:00am 17.2 SE 15 19 1016.4 - 0.0 - - 10 - - - -
14/03:30am 17.2 SSE 16 20 1016.4 - 0.0 - - 10 - - - -
14/03:00am 17.1 SE 15 20 1016.3 - 0.0 - - 10 - - - -
14/02:30am 17.5 SSE 19 25 1016.0 - 0.0 - - 10 - - - -
14/02:00am 17.6 SE 19 25 1016.3 - 0.0 - Partly cloudy 10 - - - -

Other Formats:

Comma delimited format used in spreadsheet applications
http://www.bom.gov.au/fwo/IDS60701/IDS60701.95666.axf

JavaScript Object Notation format (JSON) in row-major order
http://www.bom.gov.au/fwo/IDS60701/IDS60701.95666.json